Time;durP1;ratioP1;P1;durP2;ratioP2;P2;SDS_P1;SDS_P2;PMS_P1;PMS_P2;Temp;Humidity;BMP_temperature;BMP_pressure;BME280_temperature;BME280_humidity;BME280_pressure;Samples;Min_cycle;Max_cycle;Signal;HPM_P1;HPM_P2
2022/12/29 00:01:55;;;;;;;2.05;0.73;;;;;;;-142.75;100.00;76093.94;5004623;28;20469;-64
2022/12/29 00:04:21;;;;;;;1.67;0.88;;;;;;;-142.75;100.00;76078.19;5005162;28;20137;-65
2022/12/29 00:06:48;;;;;;;3.78;0.77;;;;;;;-142.75;100.00;76062.47;4986073;28;20377;-66
2022/12/29 00:09:15;;;;;;;3.00;0.82;;;;;;;-142.75;100.00;76048.69;5003972;28;20525;-66
2022/12/29 00:11:41;;;;;;;2.33;0.93;;;;;;;-142.75;100.00;76046.72;5004090;28;20122;-68
2022/12/29 00:16:52;;;;;;;1.60;0.75;;;;;;;-142.75;100.00;76058.53;4999761;28;19923;-67
2022/12/29 00:35:52;;;;;;;1.55;0.55;;;;;;;-142.75;100.00;76040.81;5003527;28;20934;-66
2022/12/29 00:44:06;;;;;;;1.45;0.70;;;;;;;-142.75;100.00;76058.53;4930331;28;20530;-70
2022/12/29 00:46:33;;;;;;;1.75;0.95;;;;;;;-142.75;100.00;76058.53;4961635;28;20025;-71
2022/12/29 00:51:44;;;;;;;1.73;0.50;;;;;;;-142.75;100.00;76064.44;4976088;28;20467;-69
2022/12/29 00:54:10;;;;;;;3.63;0.85;;;;;;;-142.75;100.00;76093.94;4947099;28;20134;-70
2022/12/29 00:56:36;;;;;;;3.50;0.82;;;;;;;-142.75;100.00;76117.56;4952632;28;20351;-68
2022/12/29 00:59:06;;;;;;;4.65;1.17;;;;;;;-142.75;100.00;76137.25;4965722;28;20617;-68
2022/12/29 01:01:33;;;;;;;2.72;0.88;;;;;;;-142.75;100.00;76158.91;4966285;28;20056;-67
2022/12/29 01:03:58;;;;;;;2.95;0.90;;;;;;;-142.75;100.00;76158.91;4970598;28;20219;-67
2022/12/29 01:06:24;;;;;;;2.53;1.00;;;;;;;-142.75;100.00;76156.94;4978615;28;20417;-70
2022/12/29 01:10:09;;;;;;;1.50;0.80;;;;;;;-142.75;100.00;76160.88;4964095;28;20414;-70
2022/12/29 01:11:37;;;;;;;3.63;0.73;;;;;;;-142.75;100.00;76184.50;4973630;28;20497;-69
2022/12/29 01:14:02;;;;;;;;;;;;;;;-142.75;100.00;76162.84;4983708;28;20557;-68
2022/12/29 01:16:28;;;;;;;2.28;0.82;;;;;;;-142.75;100.00;76162.84;4984263;28;19970;-70
2022/12/29 01:18:53;;;;;;;;;;;;;;;-142.75;100.00;76172.69;4978215;28;20046;-69
2022/12/29 01:21:19;;;;;;;2.03;0.60;;;;;;;-142.75;100.00;76164.81;4975279;28;19956;-68
2022/12/29 01:23:44;;;;;;;3.45;0.95;;;;;;;-142.75;100.00;76156.94;4976407;28;20251;-68
2022/12/29 01:26:15;;;;;;;1.58;0.68;;;;;;;-142.75;100.00;76162.84;4945329;28;20030;-68
2022/12/29 01:28:41;;;;;;;2.97;0.82;;;;;;;-142.75;100.00;76151.03;4970958;28;20021;-67
2022/12/29 01:31:11;;;;;;;3.35;0.98;;;;;;;-142.75;100.00;76139.22;4975308;28;20649;-67
2022/12/29 01:33:37;;;;;;;2.58;1.13;;;;;;;-142.75;100.00;76133.31;4983313;28;20029;-68
2022/12/29 01:36:05;;;;;;;1.27;0.60;;;;;;;-142.75;100.00;76137.25;4975083;28;20063;-69
2022/12/29 01:38:31;;;;;;;2.15;0.88;;;;;;;-142.75;100.00;76129.38;4965206;28;20025;-68
2022/12/29 01:40:57;;;;;;;1.75;0.70;;;;;;;-142.75;100.00;76127.41;4968923;28;20078;-68
2022/12/29 01:43:39;;;;;;;2.72;0.73;;;;;;;-142.75;100.00;76113.63;4977207;28;20360;-67
2022/12/29 01:46:27;;;;;;;2.47;0.65;;;;;;;-142.75;100.00;76111.66;4978433;28;20123;-68
2022/12/29 01:49:15;;;;;;;4.45;0.93;;;;;;;-142.75;100.00;76113.63;4964043;28;20835;-67
2022/12/29 01:51:55;;;;;;;2.58;0.82;;;;;;;-142.75;100.00;76125.44;4959235;28;20621;-67
2022/12/29 01:54:43;;;;;;;1.63;0.73;;;;;;;-142.75;100.00;76125.44;4972081;28;20017;-68
2022/12/29 01:57:16;;;;;;;6.47;1.02;;;;;;;-142.75;100.00;76123.47;4979333;28;20111;-67
2022/12/29 01:59:48;;;;;;;2.25;0.75;;;;;;;-142.75;100.00;76137.25;4965208;28;20550;-68
2022/12/29 02:02:13;;;;;;;5.72;0.85;;;;;;;-142.75;100.00;76129.38;4970686;28;20039;-68
2022/12/29 02:04:45;;;;;;;3.38;0.77;;;;;;;-142.75;100.00;76143.16;4976961;28;20347;-67
2022/12/29 02:07:24;;;;;;;5.80;0.73;;;;;;;-142.75;100.00;76141.19;4976969;28;20091;-67
2022/12/29 02:09:52;;;;;;;1.77;0.57;;;;;;;-142.75;100.00;76149.06;4973751;28;20059;-67
2022/12/29 02:12:20;;;;;;;2.25;0.65;;;;;;;-142.75;100.00;76149.06;4965274;28;20025;-68
2022/12/29 02:14:48;;;;;;;3.35;0.80;;;;;;;-142.75;100.00;76141.19;4965309;28;20558;-68
2022/12/29 02:17:23;;;;;;;1.55;0.55;;;;;;;-142.75;100.00;76131.34;4962948;28;20110;-68
2022/12/29 02:20:33;;;;;;;4.63;0.65;;;;;;;-142.75;100.00;76133.31;4980346;28;20044;-67
2022/12/29 02:23:40;;;;;;;7.30;1.35;;;;;;;-142.75;100.00;76121.50;4961023;28;20140;-69
2022/12/29 02:26:32;;;;;;;2.17;0.40;;;;;;;-142.75;100.00;76141.19;4970687;28;20028;-68
2022/12/29 02:29:19;;;;;;;2.72;0.50;;;;;;;-142.75;100.00;76129.38;4964154;28;20035;-68
2022/12/29 02:31:45;;;;;;;4.35;0.60;;;;;;;-142.75;100.00;76137.25;4968560;28;20033;-67
2022/12/29 02:34:36;;;;;;;1.75;0.32;;;;;;;-142.75;100.00;76129.38;4966420;28;20056;-68
2022/12/29 02:37:10;;;;;;;2.13;0.40;;;;;;;-142.75;100.00;76137.25;4960258;28;20041;-68
2022/12/29 02:40:05;;;;;;;3.53;0.45;;;;;;;-142.75;100.00;76119.53;4960678;28;20029;-69
2022/12/29 02:42:59;;;;;;;8.18;1.45;;;;;;;-142.75;100.00;76131.34;4960962;28;20668;-68
2022/12/29 02:45:37;;;;;;;2.65;0.43;;;;;;;-142.75;100.00;76129.38;4973201;28;20051;-70
2022/12/29 02:48:20;;;;;;;4.57;0.70;;;;;;;-142.75;100.00;76133.31;4967326;28;20041;-69
2022/12/29 02:50:59;;;;;;;5.43;0.40;;;;;;;-142.75;100.00;76145.13;4973030;28;20064;-69
2022/12/29 02:56:21;;;;;;;3.85;0.43;;;;;;;-142.75;100.00;76137.25;4911208;28;20293;-68
2022/12/29 02:58:47;;;;;;;1.75;0.38;;;;;;;-142.75;100.00;76133.31;4972069;28;20855;-69
2022/12/29 03:01:21;;;;;;;3.90;0.65;;;;;;;-142.75;100.00;76139.22;4970330;28;20033;-69
2022/12/29 03:04:10;;;;;;;7.00;0.80;;;;;;;-142.75;100.00;76135.28;4974840;28;20569;-68
2022/12/29 03:06:35;;;;;;;2.80;0.80;;;;;;;-142.75;100.00;76153.00;4983678;28;20032;-68
2022/12/29 03:09:35;;;;;;;4.65;0.77;;;;;;;-142.75;100.00;76129.38;4968878;28;20199;-68
2022/12/29 03:12:14;;;;;;;4.10;0.55;;;;;;;-142.75;100.00;76113.63;4964580;28;20017;-68
2022/12/29 03:17:39;;;;;;;5.13;0.65;;;;;;;-142.75;100.00;76107.72;4980890;28;20349;-68
2022/12/29 03:20:08;;;;;;;3.47;0.90;;;;;;;-142.75;100.00;76113.63;4984163;28;20052;-69
2022/12/29 03:22:40;;;;;;;3.67;0.55;;;;;;;-142.75;100.00;76113.63;4981029;28;20053;-68
2022/12/29 03:25:20;;;;;;;6.38;1.10;;;;;;;-142.75;100.00;76101.81;4973047;28;20600;-68
2022/12/29 03:27:56;;;;;;;3.25;0.50;;;;;;;-142.75;100.00;76131.34;4976830;28;20020;-69
2022/12/29 03:30:23;;;;;;;4.33;0.60;;;;;;;-142.75;100.00;76125.44;4968320;28;20127;-68
2022/12/29 03:32:55;;;;;;;4.70;0.63;;;;;;;-142.75;100.00;76137.25;4983736;28;20060;-68
2022/12/29 03:35:27;;;;;;;5.30;0.50;;;;;;;-142.75;100.00;76131.34;4967156;28;20553;-68
2022/12/29 03:38:00;;;;;;;4.05;0.70;;;;;;;-142.75;100.00;76133.31;4985406;28;20163;-68
2022/12/29 03:40:28;;;;;;;2.92;0.50;;;;;;;-142.75;100.00;76145.13;4975962;28;20132;-69
2022/12/29 03:42:55;;;;;;;4.07;1.08;;;;;;;-142.75;100.00;76154.97;4985164;28;20036;-68
2022/12/29 03:45:20;;;;;;;2.15;0.40;;;;;;;-142.75;100.00;76154.97;4972105;28;20021;-69
2022/12/29 03:47:46;;;;;;;6.80;0.70;;;;;;;-142.75;100.00;76160.88;4968568;28;20449;-69
2022/12/29 03:50:13;;;;;;;3.75;0.57;;;;;;;-142.75;100.00;76156.94;4973793;28;20311;-69
2022/12/29 03:52:38;;;;;;;6.80;0.70;;;;;;;-142.75;100.00;76145.13;4963626;28;20127;-69
2022/12/29 03:55:04;;;;;;;4.43;0.68;;;;;;;-142.75;100.00;76149.06;4977702;28;20304;-69
2022/12/29 03:57:30;;;;;;;3.17;0.55;;;;;;;-142.75;100.00;76158.91;4983235;28;20028;-69
2022/12/29 03:59:55;;;;;;;4.13;0.73;;;;;;;-142.75;100.00;76145.13;4973429;28;20381;-68
2022/12/29 04:02:21;;;;;;;4.03;0.75;;;;;;;-142.75;100.00;76141.19;4977195;28;20392;-68
2022/12/29 04:04:46;;;;;;;5.60;0.90;;;;;;;-142.75;100.00;76137.25;4979110;28;20319;-69
2022/12/29 04:07:12;;;;;;;2.60;0.65;;;;;;;-142.75;100.00;76133.31;4972264;28;20378;-68
2022/12/29 04:09:37;;;;;;;4.57;1.15;;;;;;;-142.75;100.00;76137.25;4967279;28;20434;-69
2022/12/29 04:12:03;;;;;;;5.60;0.70;;;;;;;-142.75;100.00;76145.13;4964860;28;20354;-69
2022/12/29 04:14:28;;;;;;;4.97;1.08;;;;;;;-142.75;100.00;76137.25;4968595;28;20344;-68
2022/12/29 04:16:54;;;;;;;11.90;1.35;;;;;;;-142.75;100.00;76168.75;4962795;28;20316;-68
2022/12/29 04:19:20;;;;;;;6.13;0.85;;;;;;;-142.75;100.00;76172.69;4978383;28;20516;-69
2022/12/29 04:21:45;;;;;;;14.55;3.03;;;;;;;-142.75;100.00;76168.75;4979759;28;20438;-68
2022/12/29 04:24:12;;;;;;;4.63;0.77;;;;;;;-142.75;100.00;76174.66;4977679;28;20379;-69
2022/12/29 04:26:38;;;;;;;6.13;0.80;;;;;;;-142.75;100.00;76194.34;4969105;28;20025;-67
2022/12/29 04:29:04;;;;;;;10.40;1.35;;;;;;;-142.75;100.00;76217.94;4968052;28;20308;-68
2022/12/29 04:31:29;;;;;;;5.05;0.80;;;;;;;-142.75;100.00;76221.88;4967401;28;20375;-68
2022/12/29 04:33:56;;;;;;;5.15;1.42;;;;;;;-142.75;100.00;76210.06;4966418;28;20470;-69
2022/12/29 04:36:22;;;;;;;9.05;1.33;;;;;;;-142.75;100.00;76239.59;4972751;28;20174;-69
2022/12/29 04:38:48;;;;;;;8.02;1.77;;;;;;;-142.75;100.00;76243.53;4966014;28;20503;-68
2022/12/29 04:41:13;;;;;;;7.55;1.50;;;;;;;-142.75;100.00;76227.78;4981109;28;20436;-70
2022/12/29 04:43:39;;;;;;;4.82;0.75;;;;;;;-142.75;100.00;76251.41;4971791;28;20343;-68
2022/12/29 04:46:05;;;;;;;6.50;1.25;;;;;;;-142.75;100.00;76251.41;4962894;28;20033;-70
2022/12/29 04:48:30;;;;;;;6.57;1.00;;;;;;;-142.75;100.00;76243.53;4970417;28;20017;-68
2022/12/29 04:50:56;;;;;;;7.50;1.00;;;;;;;-142.75;100.00;76253.38;4964343;28;20354;-68
2022/12/29 04:53:21;;;;;;;10.45;1.25;;;;;;;-142.75;100.00;76243.53;4985977;28;20429;-69
2022/12/29 04:55:51;;;;;;;8.30;0.98;;;;;;;-142.75;100.00;76251.41;4986005;28;20433;-69
2022/12/29 04:58:18;;;;;;;8.75;0.90;;;;;;;-142.75;100.00;76245.50;4962955;28;20149;-69
2022/12/29 05:00:43;;;;;;;6.97;1.00;;;;;;;-142.75;100.00;76243.53;4969920;28;20058;-68
2022/12/29 05:03:09;;;;;;;8.10;0.82;;;;;;;-142.75;100.00;76243.53;4966740;28;20314;-69
2022/12/29 05:05:34;;;;;;;9.63;0.88;;;;;;;-142.75;100.00;76229.75;4966258;28;20460;-68
2022/12/29 05:08:00;;;;;;;9.02;1.02;;;;;;;-142.75;100.00;76239.59;4971485;28;20234;-69
2022/12/29 05:10:25;;;;;;;6.95;0.80;;;;;;;-142.75;100.00;76235.66;4965097;28;20335;-69
2022/12/29 05:12:51;;;;;;;6.88;0.95;;;;;;;-142.75;100.00;76239.59;4970429;28;20312;-68
2022/12/29 05:15:17;;;;;;;10.73;1.33;;;;;;;-142.75;100.00;76237.63;4973209;28;20466;-70
2022/12/29 05:17:42;;;;;;;8.20;1.20;;;;;;;-142.75;100.00;76243.53;4969506;28;20362;-69
2022/12/29 05:20:08;;;;;;;7.72;1.30;;;;;;;-142.75;100.00;76259.28;4982059;28;20233;-69
2022/12/29 05:22:34;;;;;;;11.05;1.58;;;;;;;-142.75;100.00;76247.47;4976925;28;20022;-68
2022/12/29 05:24:59;;;;;;;9.60;1.10;;;;;;;-142.75;100.00;76255.34;4970742;28;20442;-69
2022/12/29 05:27:25;;;;;;;4.47;0.93;;;;;;;-142.75;100.00;76271.09;4970032;28;20440;-71
2022/12/29 05:29:50;;;;;;;9.70;1.80;;;;;;;-142.75;100.00;76253.38;4967258;28;20351;-69
2022/12/29 05:32:16;;;;;;;12.80;1.00;;;;;;;-142.75;100.00;76255.34;4965774;28;20322;-68
2022/12/29 05:34:41;;;;;;;12.07;1.58;;;;;;;-142.75;100.00;76259.28;4971538;28;20338;-69
2022/12/29 05:37:07;;;;;;;4.75;1.33;;;;;;;-142.75;100.00;76263.22;4970375;28;20314;-68
2022/12/29 05:39:32;;;;;;;10.00;1.17;;;;;;;-142.75;100.00;76273.06;4970171;28;20366;-68
2022/12/29 05:41:58;;;;;;;17.52;1.65;;;;;;;-142.75;100.00;76284.88;4976320;28;20320;-69
2022/12/29 05:44:23;;;;;;;14.45;1.70;;;;;;;-142.75;100.00;76292.75;4969232;28;20446;-68
2022/12/29 05:46:49;;;;;;;9.95;1.45;;;;;;;-142.75;100.00;76288.81;4964294;28;20067;-69
2022/12/29 05:49:15;;;;;;;9.95;1.58;;;;;;;-142.75;100.00;76286.84;4983828;28;20339;-67
2022/12/29 05:51:41;;;;;;;20.40;2.38;;;;;;;-142.75;100.00;76286.84;4965361;28;20596;-68
2022/12/29 05:54:06;;;;;;;17.77;2.15;;;;;;;-142.75;100.00;76302.59;4970549;28;20030;-68
2022/12/29 05:56:32;;;;;;;11.93;1.35;;;;;;;-142.75;100.00;76306.53;4977860;28;20032;-68
2022/12/29 05:58:57;;;;;;;11.07;1.90;;;;;;;-142.75;100.00;76302.59;4968049;28;20349;-68
2022/12/29 06:01:23;;;;;;;9.52;1.73;;;;;;;-142.75;100.00;76310.47;4969173;28;20331;-69
2022/12/29 06:03:48;;;;;;;8.82;1.25;;;;;;;-142.75;100.00;76332.13;4976962;28;20060;-67
2022/12/29 06:06:14;;;;;;;6.25;1.02;;;;;;;-142.75;100.00;76334.09;4967636;28;20297;-69
2022/12/29 06:08:40;;;;;;;11.52;1.90;;;;;;;-142.75;100.00;76347.84;4964060;28;20312;-68
2022/12/29 06:11:05;;;;;;;10.05;1.20;;;;;;;-142.75;100.00;76334.09;4975099;28;20300;-67
2022/12/29 06:13:31;;;;;;;7.40;0.88;;;;;;;-142.75;100.00;76332.13;4960917;28;20315;-68
2022/12/29 06:15:56;;;;;;;11.93;1.65;;;;;;;-142.75;100.00;76330.16;4967271;28;20423;-69
2022/12/29 06:18:22;;;;;;;11.82;1.00;;;;;;;-142.75;100.00;76326.22;4984247;28;20338;-68
2022/12/29 06:20:48;;;;;;;14.63;1.77;;;;;;;-142.75;100.00;76326.22;4971453;28;20308;-69
2022/12/29 06:23:13;;;;;;;11.15;1.20;;;;;;;-142.75;100.00;76332.13;4974569;28;20498;-68
2022/12/29 06:25:39;;;;;;;6.05;1.17;;;;;;;-142.75;100.00;76310.47;4963828;28;20446;-68
2022/12/29 06:28:05;;;;;;;5.53;0.93;;;;;;;-142.75;100.00;76310.47;4973181;28;20362;-67
2022/12/29 06:30:31;;;;;;;13.68;1.35;;;;;;;-142.75;100.00;76324.25;4960576;28;20029;-68
2022/12/29 06:32:58;;;;;;;12.13;1.70;;;;;;;-142.75;100.00;76322.28;4966373;28;20148;-69
2022/12/29 06:35:23;;;;;;;7.88;1.00;;;;;;;-142.75;100.00;76314.41;4965110;28;20104;-68
2022/12/29 06:40:18;;;;;;;8.77;1.08;;;;;;;-142.75;100.00;76310.47;4987545;28;20369;-66
2022/12/29 06:42:43;;;;;;;7.65;1.08;;;;;;;-142.75;100.00;76324.25;4983460;28;20345;-67
2022/12/29 06:45:10;;;;;;;7.22;1.02;;;;;;;-142.75;100.00;76326.22;4995426;28;20049;-66
2022/12/29 06:47:35;;;;;;;6.45;0.98;;;;;;;-142.75;100.00;76340.00;4981645;28;20210;-65
2022/12/29 06:50:02;;;;;;;8.45;1.15;;;;;;;-142.75;100.00;76334.09;4986888;28;20432;-65
2022/12/29 06:52:28;;;;;;;8.02;0.95;;;;;;;-142.75;100.00;76351.81;4990554;28;20055;-65
2022/12/29 06:54:54;;;;;;;8.93;1.35;;;;;;;-142.75;100.00;76355.72;4987779;28;20065;-65
2022/12/29 06:57:21;;;;;;;7.22;1.52;;;;;;;-142.75;100.00;76359.66;4990352;28;20168;-65
2022/12/29 06:59:46;;;;;;;12.82;1.08;;;;;;;-142.75;100.00;76375.41;4998768;28;20205;-65
2022/12/29 07:02:14;;;;;;;9.15;1.25;;;;;;;-142.75;100.00;76377.38;5001407;28;20296;-64
2022/12/29 07:04:39;;;;;;;12.23;1.30;;;;;;;-142.75;100.00;76395.09;4998622;28;20083;-65
2022/12/29 07:07:05;;;;;;;12.77;1.30;;;;;;;-142.75;100.00;76402.97;4994179;28;20346;-65
2022/12/29 07:09:30;;;;;;;4.55;1.52;;;;;;;-142.75;100.00;76399.03;4980400;28;20244;-65
2022/12/29 07:11:56;;;;;;;11.02;1.58;;;;;;;-142.75;100.00;76397.06;4981853;28;20380;-65
2022/12/29 07:14:21;;;;;;;5.72;0.90;;;;;;;-142.75;100.00;76395.09;4979902;28;20395;-65
2022/12/29 07:16:47;;;;;;;8.38;1.33;;;;;;;-142.75;100.00;76401.00;4979538;28;20303;-65
2022/12/29 07:19:12;;;;;;;9.02;1.25;;;;;;;-142.75;100.00;76412.81;4990604;28;20029;-65
2022/12/29 07:21:38;;;;;;;11.32;1.30;;;;;;;-142.75;100.00;76389.19;4982900;28;20295;-66
2022/12/29 07:24:03;;;;;;;5.93;1.38;;;;;;;-142.75;100.00;76385.25;4993584;28;20357;-65
2022/12/29 07:26:29;;;;;;;6.70;1.02;;;;;;;-142.75;100.00;76379.34;4984157;28;20338;-65
2022/12/29 07:28:55;;;;;;;6.28;1.38;;;;;;;-142.75;100.00;76387.22;4992847;28;20288;-64
2022/12/29 07:31:22;;;;;;;8.35;1.42;;;;;;;-142.75;100.00;76371.47;4983113;28;20020;-66
2022/12/29 07:33:48;;;;;;;11.10;1.27;;;;;;;-142.75;100.00;76373.44;4982892;28;20024;-65
2022/12/29 07:36:16;;;;;;;12.65;1.25;;;;;;;-142.75;100.00;76373.44;4982827;28;20028;-65
2022/12/29 07:38:42;;;;;;;7.35;1.23;;;;;;;-142.75;100.00;76361.63;4993057;28;20063;-65
2022/12/29 07:41:07;;;;;;;;;;;;;;;-142.75;100.00;76377.38;4992653;28;20032;-65
2022/12/29 07:43:33;;;;;;;16.08;2.55;;;;;;;-142.75;100.00;76351.81;4983257;28;20403;-65
2022/12/29 07:45:59;;;;;;;9.23;1.13;;;;;;;-142.75;100.00;76357.69;4988967;28;20361;-65
2022/12/29 07:48:24;;;;;;;8.48;1.40;;;;;;;-142.75;100.00;76338.03;5001087;28;20318;-65
2022/12/29 07:50:51;;;;;;;8.77;1.27;;;;;;;-142.75;100.00;76345.91;4995665;28;20314;-63
2022/12/29 07:53:17;;;;;;;11.80;1.83;;;;;;;-142.75;100.00;76341.97;4999161;28;20029;-65
2022/12/29 07:55:42;;;;;;;11.07;1.38;;;;;;;-142.75;100.00;76322.28;4986214;28;20396;-65
2022/12/29 07:58:08;;;;;;;13.55;1.52;;;;;;;-142.75;100.00;76318.34;4996557;28;20331;-64
2022/12/29 08:00:33;;;;;;;14.63;1.30;;;;;;;-142.75;100.00;76318.34;4986109;28;20191;-65
2022/12/29 08:02:59;;;;;;;11.52;1.80;;;;;;;-142.75;100.00;76314.41;4986250;28;20230;-65
2022/12/29 08:05:24;;;;;;;15.32;1.38;;;;;;;-142.75;100.00;76310.47;4991974;28;20321;-66
2022/12/29 08:07:50;;;;;;;15.50;1.75;;;;;;;-142.75;100.00;76304.56;5003948;28;20311;-65
2022/12/29 08:10:16;;;;;;;17.77;1.67;;;;;;;-142.75;100.00;76320.31;4994772;28;20303;-65
2022/12/29 08:12:42;;;;;;;20.85;1.85;;;;;;;-142.75;100.00;76302.59;4998555;28;20323;-65
2022/12/29 08:15:10;;;;;;;11.32;1.35;;;;;;;-142.75;100.00;76312.44;4991805;28;20136;-65
2022/12/29 08:17:35;;;;;;;8.48;1.25;;;;;;;-142.75;100.00;76298.66;4985654;28;20029;-65
2022/12/29 08:20:01;;;;;;;5.93;1.17;;;;;;;-142.75;100.00;76306.53;4991992;28;20469;-65
2022/12/29 08:22:27;;;;;;;8.88;1.48;;;;;;;-142.75;100.00;76316.38;4982270;28;20135;-65
2022/12/29 08:24:52;;;;;;;13.35;1.40;;;;;;;-142.75;100.00;76322.28;4982472;28;20338;-65
2022/12/29 08:27:19;;;;;;;13.38;2.15;;;;;;;-142.75;100.00;76330.16;4989495;28;20295;-65
2022/12/29 08:29:44;;;;;;;;;;;;;;;-142.75;100.00;76361.63;5003689;28;20029;-65
2022/12/29 08:32:10;;;;;;;13.50;1.30;;;;;;;-142.75;100.00;76347.84;5002271;28;20261;-65
2022/12/29 08:34:35;;;;;;;11.50;1.42;;;;;;;-142.75;100.00;76363.59;4993814;28;20335;-65
2022/12/29 08:37:01;;;;;;;11.45;1.90;;;;;;;-142.75;100.00;76373.44;5003666;28;20051;-65
2022/12/29 08:39:27;;;;;;;9.98;1.63;;;;;;;-142.75;100.00;76393.13;4985853;28;20354;-65
2022/12/29 08:41:52;;;;;;;12.38;1.58;;;;;;;-142.75;100.00;76428.56;4975596;28;20060;-65
2022/12/29 08:44:18;;;;;;;11.57;1.77;;;;;;;-142.75;100.00;76426.59;4999490;28;20376;-63
2022/12/29 08:46:43;;;;;;;9.52;1.40;;;;;;;-142.75;100.00;76434.47;4983980;28;20245;-68
2022/12/29 08:49:09;;;;;;;11.35;1.58;;;;;;;-142.75;100.00;76448.25;4984304;28;20353;-63
2022/12/29 08:51:35;;;;;;;7.10;1.50;;;;;;;-142.75;100.00;76462.03;4994814;28;20315;-64
2022/12/29 08:54:00;;;;;;;18.42;1.65;;;;;;;-142.75;100.00;76460.06;4977866;28;20344;-63
2022/12/29 08:56:26;;;;;;;11.40;1.52;;;;;;;-142.75;100.00;76444.31;5001295;28;20025;-63
2022/12/29 08:58:52;;;;;;;;;;;;;;;-142.75;100.00;76452.19;4994648;28;20106;-63
2022/12/29 09:01:19;;;;;;;9.32;1.48;;;;;;;-142.75;100.00;76462.03;4983492;28;20238;-65
2022/12/29 09:03:44;;;;;;;9.90;1.48;;;;;;;-142.75;100.00;76479.75;4979458;28;20032;-64
2022/12/29 09:06:10;;;;;;;13.25;1.50;;;;;;;-142.75;100.00;76503.38;5002139;28;20341;-64
2022/12/29 09:08:35;;;;;;;9.70;1.77;;;;;;;-142.75;100.00;76487.63;4969285;28;20361;-64
2022/12/29 09:11:20;;;;;;;13.25;1.67;;;;;;;-142.75;100.00;76509.28;4977290;28;20417;-64
2022/12/29 09:13:46;;;;;;;17.45;2.10;;;;;;;-142.75;100.00;76505.34;4965172;28;20021;-63
2022/12/29 09:16:12;;;;;;;10.68;1.17;;;;;;;-142.75;100.00;76517.16;4989768;28;20029;-63
2022/12/29 09:18:38;;;;;;;;;;;;;;;-142.75;100.00;76519.13;4987514;28;20024;-64
2022/12/29 09:21:05;;;;;;;12.57;1.65;;;;;;;-142.75;100.00;76523.06;4972625;28;20214;-63
2022/12/29 09:23:31;;;;;;;5.15;1.13;;;;;;;-142.75;100.00;76515.19;4990374;28;20024;-63
2022/12/29 09:25:56;;;;;;;7.82;1.27;;;;;;;-142.75;100.00;76499.44;4995956;28;20117;-63
2022/12/29 09:28:22;;;;;;;10.00;1.67;;;;;;;-142.75;100.00;76507.31;4966430;28;20336;-65
2022/12/29 09:30:48;;;;;;;5.75;0.70;;;;;;;-142.75;100.00;76513.22;4992131;28;20433;-64
2022/12/29 09:33:14;;;;;;;10.52;1.15;;;;;;;-142.75;100.00;76501.41;4981280;28;20039;-66
2022/12/29 09:35:54;;;;;;;12.85;1.33;;;;;;;-142.75;100.00;76501.41;5002383;28;20341;-65
2022/12/29 09:38:21;;;;;;;11.70;1.30;;;;;;;-142.75;100.00;76499.44;4992585;28;20021;-65
2022/12/29 09:40:52;;;;;;;9.00;1.25;;;;;;;-142.75;100.00;76487.63;5002489;28;20565;-64
2022/12/29 09:43:25;;;;;;;8.00;1.40;;;;;;;-142.75;100.00;76495.50;4983010;28;20022;-65
2022/12/29 09:46:22;;;;;;;7.68;1.13;;;;;;;-142.75;100.00;76515.19;4978620;28;20028;-63
2022/12/29 09:48:53;;;;;;;10.85;1.23;;;;;;;-142.75;100.00;76511.25;4977868;28;20059;-63
2022/12/29 09:51:23;;;;;;;7.05;1.33;;;;;;;-142.75;100.00;76507.31;4987531;28;20024;-63
2022/12/29 09:53:58;;;;;;;6.07;1.08;;;;;;;-142.75;100.00;76511.25;4983927;28;20028;-65
2022/12/29 09:56:26;;;;;;;4.75;1.55;;;;;;;-142.75;100.00;76519.13;4988814;28;20052;-64
2022/12/29 09:58:57;;;;;;;9.35;1.65;;;;;;;-142.75;100.00;76505.34;4994946;28;20036;-64
2022/12/29 10:01:32;;;;;;;10.77;2.00;;;;;;;-142.75;100.00;76515.19;4985503;28;20194;-66
2022/12/29 10:04:02;;;;;;;10.80;2.28;;;;;;;-142.75;100.00;76503.38;4988263;28;20036;-66
2022/12/29 10:06:43;;;;;;;12.80;2.70;;;;;;;-142.75;100.00;76517.16;5001970;28;20028;-65
2022/12/29 10:09:21;;;;;;;14.02;3.13;;;;;;;-142.75;100.00;76528.97;4982132;28;20550;-65
2022/12/29 10:12:09;;;;;;;11.00;2.40;;;;;;;-142.75;100.00;76530.91;4992961;28;20033;-65
2022/12/29 10:14:40;;;;;;;15.85;3.13;;;;;;;-142.75;100.00;76513.22;5052715;28;20416;-65
2022/12/29 10:17:23;;;;;;;10.00;2.55;;;;;;;-142.75;100.00;76503.38;5042262;28;20114;-65
2022/12/29 10:20:01;;;;;;;18.48;3.47;;;;;;;-142.75;100.00;76515.19;5043472;28;20035;-67
2022/12/29 10:22:26;;;;;;;19.95;3.13;;;;;;;-142.75;100.00;76528.97;5041683;28;20043;-64
2022/12/29 10:24:55;;;;;;;16.87;2.57;;;;;;;-142.75;100.00;76517.16;5038329;28;20036;-65
2022/12/29 10:27:21;;;;;;;20.73;2.65;;;;;;;-142.75;100.00;76515.19;5038407;28;20041;-62
2022/12/29 10:29:54;;;;;;;15.55;3.50;;;;;;;-142.75;100.00;76528.97;5042325;28;20074;-63
2022/12/29 10:32:29;;;;;;;26.50;2.95;;;;;;;-142.75;100.00;76538.78;5039576;28;20639;-65
2022/12/29 10:35:04;;;;;;;26.48;3.05;;;;;;;-142.75;100.00;76523.06;5032915;28;20211;-64
2022/12/29 10:37:40;;;;;;;17.13;2.90;;;;;;;-142.75;100.00;76515.19;5031391;28;20086;-64
2022/12/29 10:40:28;;;;;;;20.92;3.08;;;;;;;-142.75;100.00;76495.50;5032925;28;20023;-65
2022/12/29 10:42:56;;;;;;;24.52;3.05;;;;;;;-142.75;100.00;76473.84;5049380;28;20390;-65
2022/12/29 10:45:26;;;;;;;15.90;2.78;;;;;;;-142.75;100.00;76483.69;5052065;28;20359;-64
2022/12/29 10:47:55;;;;;;;22.77;3.42;;;;;;;-142.75;100.00;76501.41;5051802;28;20032;-65
2022/12/29 10:50:22;;;;;;;23.00;3.65;;;;;;;-142.75;100.00;76507.31;5048667;28;20032;-64
2022/12/29 10:52:47;;;;;;;;;;;;;;;-142.75;100.00;76505.34;5054851;28;20086;-66
2022/12/29 10:55:19;;;;;;;15.18;2.88;;;;;;;-142.75;100.00;76523.06;5050520;28;19920;-66
2022/12/29 10:57:46;;;;;;;20.70;2.30;;;;;;;-142.75;100.00;76523.06;5050517;28;20462;-66
2022/12/29 11:00:20;;;;;;;19.80;2.58;;;;;;;-142.75;100.00;76542.72;5051634;28;20028;-67
2022/12/29 11:03:06;;;;;;;15.48;2.58;;;;;;;-142.75;100.00;76527.00;5049903;28;20063;-64
2022/12/29 11:05:45;;;;;;;14.63;2.38;;;;;;;-142.75;100.00;76540.75;5045573;28;20035;-65
2022/12/29 11:08:24;;;;;;;15.57;3.03;;;;;;;-142.75;100.00;76528.97;5042995;28;20052;-67
2022/12/29 11:11:04;;;;;;;16.77;3.20;;;;;;;-142.75;100.00;76544.69;5062819;28;20032;-67
2022/12/29 11:13:32;;;;;;;25.30;2.55;;;;;;;-142.75;100.00;76528.97;5046258;28;20020;-66
2022/12/29 11:15:59;;;;;;;22.58;3.47;;;;;;;-142.75;100.00;76521.09;5060950;28;20039;-63
2022/12/29 11:18:37;;;;;;;21.38;2.92;;;;;;;-142.75;100.00;76515.19;5044743;28;20047;-66
2022/12/29 11:21:07;;;;;;;19.05;2.25;;;;;;;-142.75;100.00;76501.41;5063069;28;20039;-64
2022/12/29 11:23:39;;;;;;;20.75;3.15;;;;;;;-142.75;100.00;76503.38;5008015;28;20044;-66
2022/12/29 11:26:14;;;;;;;21.02;2.28;;;;;;;-142.75;100.00;76487.63;5003514;28;20557;-66
2022/12/29 11:28:43;;;;;;;18.65;2.80;;;;;;;-142.75;100.00;76440.38;4999663;28;20106;-66
2022/12/29 11:31:09;;;;;;;20.25;2.33;;;;;;;-142.75;100.00;76406.91;4987296;28;20782;-65
2022/12/29 11:33:38;;;;;;;15.00;3.00;;;;;;;-142.75;100.00;76393.13;4992646;28;20588;-65
2022/12/29 11:36:12;;;;;;;21.13;2.53;;;;;;;-142.75;100.00;76406.91;4996933;28;20115;-66
2022/12/29 11:38:42;;;;;;;15.23;2.28;;;;;;;-142.75;100.00;76440.38;4986225;28;20554;-67
2022/12/29 11:41:13;;;;;;;20.35;3.03;;;;;;;-142.75;100.00;76440.38;4994586;28;20024;-66
2022/12/29 11:43:42;;;;;;;32.08;2.65;;;;;;;-142.75;100.00;76438.41;4987165;28;20086;-67
2022/12/29 11:46:17;;;;;;;21.17;2.60;;;;;;;-142.75;100.00;76389.19;4997979;28;20016;-66
2022/12/29 11:48:43;;;;;;;19.52;2.67;;;;;;;-142.75;100.00;76393.13;4996899;28;20056;-65
2022/12/29 11:51:11;;;;;;;22.13;2.63;;;;;;;-142.75;100.00;76345.91;5004588;28;20033;-66
2022/12/29 11:53:45;;;;;;;14.27;2.08;;;;;;;-142.75;100.00;76377.38;4991751;28;20052;-66